sensor_id;sensor_type;location;lat;lon;timestamp;P1;durP1;ratioP1;P2;durP2;ratioP2
15677;SDS011;7939;50.814;6.368;2023-08-21T00:00:37;6.00;;;4.40;;
15677;SDS011;7939;50.814;6.368;2023-08-21T00:03:03;6.63;;;4.63;;
15677;SDS011;7939;50.814;6.368;2023-08-21T00:05:31;5.70;;;4.60;;
15677;SDS011;7939;50.814;6.368;2023-08-21T00:07:57;6.25;;;4.45;;
15677;SDS011;7939;50.814;6.368;2023-08-21T00:10:24;5.43;;;4.72;;
15677;SDS011;7939;50.814;6.368;2023-08-21T00:12:52;8.35;;;4.35;;
15677;SDS011;7939;50.814;6.368;2023-08-21T00:15:19;5.47;;;3.70;;
15677;SDS011;7939;50.814;6.368;2023-08-21T00:17:45;6.78;;;4.20;;
15677;SDS011;7939;50.814;6.368;2023-08-21T00:20:12;4.40;;;4.00;;
15677;SDS011;7939;50.814;6.368;2023-08-21T00:22:39;5.72;;;3.95;;
15677;SDS011;7939;50.814;6.368;2023-08-21T00:25:05;6.05;;;4.32;;
15677;SDS011;7939;50.814;6.368;2023-08-21T00:27:32;7.00;;;5.13;;
15677;SDS011;7939;50.814;6.368;2023-08-21T00:30:00;5.72;;;4.95;;
15677;SDS011;7939;50.814;6.368;2023-08-21T00:32:27;7.65;;;4.00;;
15677;SDS011;7939;50.814;6.368;2023-08-21T00:34:54;6.13;;;4.45;;
15677;SDS011;7939;50.814;6.368;2023-08-21T00:37:20;7.43;;;4.55;;
15677;SDS011;7939;50.814;6.368;2023-08-21T00:39:47;5.93;;;4.47;;
15677;SDS011;7939;50.814;6.368;2023-08-21T00:42:13;7.22;;;4.07;;
15677;SDS011;7939;50.814;6.368;2023-08-21T00:44:40;7.68;;;4.47;;
15677;SDS011;7939;50.814;6.368;2023-08-21T00:47:08;7.03;;;4.28;;
15677;SDS011;7939;50.814;6.368;2023-08-21T00:49:35;4.43;;;3.80;;
15677;SDS011;7939;50.814;6.368;2023-08-21T00:52:02;8.23;;;4.65;;
15677;SDS011;7939;50.814;6.368;2023-08-21T00:54:28;7.18;;;4.60;;
15677;SDS011;7939;50.814;6.368;2023-08-21T00:56:56;5.18;;;4.10;;
15677;SDS011;7939;50.814;6.368;2023-08-21T00:59:23;5.15;;;3.90;;
15677;SDS011;7939;50.814;6.368;2023-08-21T01:01:49;8.35;;;4.40;;
15677;SDS011;7939;50.814;6.368;2023-08-21T01:04:17;6.88;;;4.72;;
15677;SDS011;7939;50.814;6.368;2023-08-21T01:06:44;5.97;;;4.32;;
15677;SDS011;7939;50.814;6.368;2023-08-21T01:09:13;5.82;;;4.28;;
15677;SDS011;7939;50.814;6.368;2023-08-21T01:11:49;8.00;;;4.72;;
15677;SDS011;7939;50.814;6.368;2023-08-21T01:14:24;7.82;;;4.40;;
15677;SDS011;7939;50.814;6.368;2023-08-21T01:16:55;6.53;;;4.55;;
15677;SDS011;7939;50.814;6.368;2023-08-21T01:19:30;4.53;;;3.95;;
15677;SDS011;7939;50.814;6.368;2023-08-21T01:21:58;6.95;;;4.00;;
15677;SDS011;7939;50.814;6.368;2023-08-21T01:24:26;7.70;;;4.43;;
15677;SDS011;7939;50.814;6.368;2023-08-21T01:26:53;6.45;;;4.38;;
15677;SDS011;7939;50.814;6.368;2023-08-21T01:29:20;6.07;;;4.25;;
15677;SDS011;7939;50.814;6.368;2023-08-21T01:31:49;9.32;;;4.47;;
15677;SDS011;7939;50.814;6.368;2023-08-21T01:34:18;5.80;;;3.83;;
15677;SDS011;7939;50.814;6.368;2023-08-21T01:36:46;7.18;;;4.60;;
15677;SDS011;7939;50.814;6.368;2023-08-21T01:39:13;9.63;;;4.30;;
15677;SDS011;7939;50.814;6.368;2023-08-21T01:41:42;8.82;;;4.78;;
15677;SDS011;7939;50.814;6.368;2023-08-21T01:44:08;9.10;;;4.70;;
15677;SDS011;7939;50.814;6.368;2023-08-21T01:46:35;6.40;;;4.40;;
15677;SDS011;7939;50.814;6.368;2023-08-21T01:49:02;11.00;;;4.88;;
15677;SDS011;7939;50.814;6.368;2023-08-21T01:51:28;7.10;;;5.32;;
15677;SDS011;7939;50.814;6.368;2023-08-21T01:53:55;7.53;;;4.90;;
15677;SDS011;7939;50.814;6.368;2023-08-21T01:56:21;8.25;;;5.15;;
15677;SDS011;7939;50.814;6.368;2023-08-21T01:58:49;6.53;;;4.57;;
15677;SDS011;7939;50.814;6.368;2023-08-21T02:01:16;9.82;;;5.05;;
15677;SDS011;7939;50.814;6.368;2023-08-21T02:03:43;8.18;;;5.00;;
15677;SDS011;7939;50.814;6.368;2023-08-21T02:06:09;7.10;;;4.75;;
15677;SDS011;7939;50.814;6.368;2023-08-21T02:08:36;7.70;;;4.68;;
15677;SDS011;7939;50.814;6.368;2023-08-21T02:11:03;7.20;;;4.20;;
15677;SDS011;7939;50.814;6.368;2023-08-21T02:13:29;5.93;;;4.18;;
15677;SDS011;7939;50.814;6.368;2023-08-21T02:15:59;8.98;;;4.38;;
15677;SDS011;7939;50.814;6.368;2023-08-21T02:18:26;7.30;;;4.35;;
15677;SDS011;7939;50.814;6.368;2023-08-21T02:20:52;5.82;;;4.25;;
15677;SDS011;7939;50.814;6.368;2023-08-21T02:23:19;7.72;;;5.13;;
15677;SDS011;7939;50.814;6.368;2023-08-21T02:25:46;8.45;;;4.65;;
15677;SDS011;7939;50.814;6.368;2023-08-21T02:28:14;11.88;;;5.25;;
15677;SDS011;7939;50.814;6.368;2023-08-21T02:30:40;6.88;;;4.90;;
15677;SDS011;7939;50.814;6.368;2023-08-21T02:33:08;10.70;;;5.30;;
15677;SDS011;7939;50.814;6.368;2023-08-21T02:35:35;9.05;;;4.30;;
15677;SDS011;7939;50.814;6.368;2023-08-21T02:38:02;9.57;;;4.95;;
15677;SDS011;7939;50.814;6.368;2023-08-21T02:40:29;5.88;;;4.78;;
15677;SDS011;7939;50.814;6.368;2023-08-21T02:42:56;7.85;;;4.97;;
15677;SDS011;7939;50.814;6.368;2023-08-21T02:45:23;8.23;;;5.15;;
15677;SDS011;7939;50.814;6.368;2023-08-21T02:47:50;8.57;;;4.88;;
15677;SDS011;7939;50.814;6.368;2023-08-21T02:50:18;6.47;;;5.22;;
15677;SDS011;7939;50.814;6.368;2023-08-21T02:52:45;6.85;;;5.38;;
15677;SDS011;7939;50.814;6.368;2023-08-21T02:55:12;6.30;;;4.75;;
15677;SDS011;7939;50.814;6.368;2023-08-21T02:57:39;7.25;;;4.80;;
15677;SDS011;7939;50.814;6.368;2023-08-21T03:00:06;9.68;;;4.72;;
15677;SDS011;7939;50.814;6.368;2023-08-21T03:02:33;6.43;;;4.80;;
15677;SDS011;7939;50.814;6.368;2023-08-21T03:05:00;6.32;;;4.88;;
15677;SDS011;7939;50.814;6.368;2023-08-21T03:07:28;6.13;;;5.18;;
15677;SDS011;7939;50.814;6.368;2023-08-21T03:09:55;7.07;;;5.70;;
15677;SDS011;7939;50.814;6.368;2023-08-21T03:12:21;4.72;;;4.30;;
15677;SDS011;7939;50.814;6.368;2023-08-21T03:14:48;7.05;;;4.97;;
15677;SDS011;7939;50.814;6.368;2023-08-21T03:17:14;14.32;;;5.25;;
15677;SDS011;7939;50.814;6.368;2023-08-21T03:19:41;8.15;;;5.13;;
15677;SDS011;7939;50.814;6.368;2023-08-21T03:22:08;6.60;;;4.47;;
15677;SDS011;7939;50.814;6.368;2023-08-21T03:24:36;7.45;;;4.68;;
15677;SDS011;7939;50.814;6.368;2023-08-21T03:27:02;6.03;;;4.47;;
15677;SDS011;7939;50.814;6.368;2023-08-21T03:29:29;8.15;;;4.90;;
15677;SDS011;7939;50.814;6.368;2023-08-21T03:31:56;5.97;;;4.75;;
15677;SDS011;7939;50.814;6.368;2023-08-21T03:34:22;6.75;;;5.05;;
15677;SDS011;7939;50.814;6.368;2023-08-21T03:36:49;6.68;;;4.65;;
15677;SDS011;7939;50.814;6.368;2023-08-21T03:39:16;5.30;;;4.63;;
15677;SDS011;7939;50.814;6.368;2023-08-21T03:41:44;6.38;;;4.68;;
15677;SDS011;7939;50.814;6.368;2023-08-21T03:44:10;5.38;;;4.60;;
15677;SDS011;7939;50.814;6.368;2023-08-21T03:46:37;6.13;;;4.68;;
15677;SDS011;7939;50.814;6.368;2023-08-21T03:49:04;6.72;;;4.70;;
15677;SDS011;7939;50.814;6.368;2023-08-21T03:51:30;7.60;;;4.13;;
15677;SDS011;7939;50.814;6.368;2023-08-21T03:53:57;7.60;;;4.90;;
15677;SDS011;7939;50.814;6.368;2023-08-21T03:56:23;6.28;;;4.60;;
15677;SDS011;7939;50.814;6.368;2023-08-21T03:58:51;6.03;;;4.53;;
15677;SDS011;7939;50.814;6.368;2023-08-21T04:01:18;9.45;;;4.75;;
15677;SDS011;7939;50.814;6.368;2023-08-21T04:03:44;8.13;;;4.50;;
15677;SDS011;7939;50.814;6.368;2023-08-21T04:06:11;7.65;;;4.90;;
15677;SDS011;7939;50.814;6.368;2023-08-21T04:08:38;7.65;;;4.60;;
15677;SDS011;7939;50.814;6.368;2023-08-21T04:11:05;7.55;;;4.65;;
15677;SDS011;7939;50.814;6.368;2023-08-21T04:13:35;6.50;;;4.90;;
15677;SDS011;7939;50.814;6.368;2023-08-21T04:16:03;8.00;;;4.47;;
15677;SDS011;7939;50.814;6.368;2023-08-21T04:18:30;6.85;;;4.38;;
15677;SDS011;7939;50.814;6.368;2023-08-21T04:20:56;7.18;;;4.60;;
15677;SDS011;7939;50.814;6.368;2023-08-21T04:23:23;8.90;;;4.10;;
15677;SDS011;7939;50.814;6.368;2023-08-21T04:25:49;11.52;;;5.05;;
15677;SDS011;7939;50.814;6.368;2023-08-21T04:28:16;7.95;;;4.47;;
15677;SDS011;7939;50.814;6.368;2023-08-21T04:30:43;7.53;;;4.30;;
15677;SDS011;7939;50.814;6.368;2023-08-21T04:33:10;10.55;;;4.75;;
15677;SDS011;7939;50.814;6.368;2023-08-21T04:35:37;6.78;;;4.38;;
15677;SDS011;7939;50.814;6.368;2023-08-21T04:38:04;6.40;;;4.15;;
15677;SDS011;7939;50.814;6.368;2023-08-21T04:40:32;7.43;;;4.53;;
15677;SDS011;7939;50.814;6.368;2023-08-21T04:42:58;12.20;;;5.75;;
15677;SDS011;7939;50.814;6.368;2023-08-21T04:45:25;9.05;;;4.70;;
15677;SDS011;7939;50.814;6.368;2023-08-21T04:47:52;7.25;;;5.10;;
15677;SDS011;7939;50.814;6.368;2023-08-21T04:50:20;5.72;;;4.68;;
15677;SDS011;7939;50.814;6.368;2023-08-21T04:52:47;10.00;;;4.70;;
15677;SDS011;7939;50.814;6.368;2023-08-21T04:55:15;7.07;;;4.82;;
15677;SDS011;7939;50.814;6.368;2023-08-21T04:57:42;9.45;;;5.15;;
15677;SDS011;7939;50.814;6.368;2023-08-21T05:00:09;5.65;;;5.05;;
15677;SDS011;7939;50.814;6.368;2023-08-21T05:02:36;7.63;;;5.47;;
15677;SDS011;7939;50.814;6.368;2023-08-21T05:05:03;10.05;;;6.20;;
15677;SDS011;7939;50.814;6.368;2023-08-21T05:07:32;9.88;;;5.57;;
15677;SDS011;7939;50.814;6.368;2023-08-21T05:09:59;7.03;;;5.93;;
15677;SDS011;7939;50.814;6.368;2023-08-21T05:12:26;9.15;;;5.68;;
15677;SDS011;7939;50.814;6.368;2023-08-21T05:14:52;7.10;;;5.35;;
15677;SDS011;7939;50.814;6.368;2023-08-21T05:17:19;8.52;;;5.80;;
15677;SDS011;7939;50.814;6.368;2023-08-21T05:19:46;6.47;;;5.35;;
15677;SDS011;7939;50.814;6.368;2023-08-21T05:22:12;7.03;;;5.47;;
15677;SDS011;7939;50.814;6.368;2023-08-21T05:24:41;7.47;;;5.60;;
15677;SDS011;7939;50.814;6.368;2023-08-21T05:27:07;8.52;;;5.50;;
15677;SDS011;7939;50.814;6.368;2023-08-21T05:29:34;7.68;;;5.68;;
15677;SDS011;7939;50.814;6.368;2023-08-21T05:32:00;6.47;;;5.78;;
15677;SDS011;7939;50.814;6.368;2023-08-21T05:34:27;9.80;;;6.00;;
15677;SDS011;7939;50.814;6.368;2023-08-21T05:36:53;7.32;;;5.85;;
15677;SDS011;7939;50.814;6.368;2023-08-21T05:39:20;8.25;;;6.20;;
15677;SDS011;7939;50.814;6.368;2023-08-21T05:41:48;6.95;;;5.90;;
15677;SDS011;7939;50.814;6.368;2023-08-21T05:44:15;6.50;;;5.80;;
15677;SDS011;7939;50.814;6.368;2023-08-21T05:46:42;6.55;;;5.78;;
15677;SDS011;7939;50.814;6.368;2023-08-21T05:49:08;7.50;;;6.30;;
15677;SDS011;7939;50.814;6.368;2023-08-21T05:51:35;7.68;;;5.95;;
15677;SDS011;7939;50.814;6.368;2023-08-21T05:54:01;10.00;;;6.63;;
15677;SDS011;7939;50.814;6.368;2023-08-21T05:56:28;7.68;;;6.60;;
15677;SDS011;7939;50.814;6.368;2023-08-21T05:58:56;11.07;;;6.47;;
15677;SDS011;7939;50.814;6.368;2023-08-21T06:01:23;10.05;;;6.57;;
15677;SDS011;7939;50.814;6.368;2023-08-21T06:03:49;8.85;;;6.55;;
15677;SDS011;7939;50.814;6.368;2023-08-21T06:06:16;10.77;;;7.45;;
15677;SDS011;7939;50.814;6.368;2023-08-21T06:08:42;10.43;;;6.78;;
15677;SDS011;7939;50.814;6.368;2023-08-21T06:11:09;11.52;;;6.90;;
15677;SDS011;7939;50.814;6.368;2023-08-21T06:13:36;15.05;;;7.05;;
15677;SDS011;7939;50.814;6.368;2023-08-21T06:16:04;10.50;;;6.45;;
15677;SDS011;7939;50.814;6.368;2023-08-21T06:18:31;8.70;;;6.50;;
15677;SDS011;7939;50.814;6.368;2023-08-21T06:20:57;8.07;;;6.57;;
15677;SDS011;7939;50.814;6.368;2023-08-21T06:23:24;10.05;;;7.07;;
15677;SDS011;7939;50.814;6.368;2023-08-21T06:25:51;8.88;;;6.60;;
15677;SDS011;7939;50.814;6.368;2023-08-21T06:28:17;9.30;;;5.93;;
15677;SDS011;7939;50.814;6.368;2023-08-21T06:30:44;11.23;;;6.38;;
15677;SDS011;7939;50.814;6.368;2023-08-21T06:33:12;9.48;;;6.40;;
15677;SDS011;7939;50.814;6.368;2023-08-21T06:35:38;9.68;;;5.82;;
15677;SDS011;7939;50.814;6.368;2023-08-21T06:38:05;10.90;;;6.85;;
15677;SDS011;7939;50.814;6.368;2023-08-21T06:40:32;10.27;;;5.78;;
15677;SDS011;7939;50.814;6.368;2023-08-21T06:42:58;8.93;;;6.07;;
15677;SDS011;7939;50.814;6.368;2023-08-21T06:45:25;9.43;;;5.72;;
15677;SDS011;7939;50.814;6.368;2023-08-21T06:47:55;9.77;;;6.00;;
15677;SDS011;7939;50.814;6.368;2023-08-21T06:50:23;9.23;;;6.20;;
15677;SDS011;7939;50.814;6.368;2023-08-21T06:52:49;11.00;;;6.05;;
15677;SDS011;7939;50.814;6.368;2023-08-21T06:55:16;10.10;;;5.70;;
15677;SDS011;7939;50.814;6.368;2023-08-21T06:57:43;7.22;;;5.20;;
15677;SDS011;7939;50.814;6.368;2023-08-21T07:00:10;7.47;;;5.72;;
15677;SDS011;7939;50.814;6.368;2023-08-21T07:02:37;8.77;;;5.20;;
15677;SDS011;7939;50.814;6.368;2023-08-21T07:05:04;9.15;;;5.07;;
15677;SDS011;7939;50.814;6.368;2023-08-21T07:07:32;8.60;;;5.70;;
15677;SDS011;7939;50.814;6.368;2023-08-21T07:09:59;9.30;;;5.32;;
15677;SDS011;7939;50.814;6.368;2023-08-21T07:12:25;11.30;;;6.15;;
15677;SDS011;7939;50.814;6.368;2023-08-21T07:14:52;9.60;;;6.00;;
15677;SDS011;7939;50.814;6.368;2023-08-21T07:17:18;11.45;;;5.78;;
15677;SDS011;7939;50.814;6.368;2023-08-21T07:19:45;10.30;;;6.63;;
15677;SDS011;7939;50.814;6.368;2023-08-21T07:22:14;9.27;;;5.80;;
15677;SDS011;7939;50.814;6.368;2023-08-21T07:24:42;15.13;;;6.47;;
15677;SDS011;7939;50.814;6.368;2023-08-21T07:27:08;12.13;;;6.15;;
15677;SDS011;7939;50.814;6.368;2023-08-21T07:29:35;9.20;;;5.18;;
15677;SDS011;7939;50.814;6.368;2023-08-21T07:32:02;10.05;;;5.93;;
15677;SDS011;7939;50.814;6.368;2023-08-21T07:34:28;9.68;;;6.15;;
15677;SDS011;7939;50.814;6.368;2023-08-21T07:36:55;9.70;;;5.68;;
15677;SDS011;7939;50.814;6.368;2023-08-21T07:39:22;11.73;;;6.75;;
15677;SDS011;7939;50.814;6.368;2023-08-21T07:41:50;9.52;;;7.13;;
15677;SDS011;7939;50.814;6.368;2023-08-21T07:44:17;11.85;;;7.40;;
15677;SDS011;7939;50.814;6.368;2023-08-21T07:46:45;11.90;;;7.22;;
15677;SDS011;7939;50.814;6.368;2023-08-21T07:49:11;10.88;;;6.55;;
15677;SDS011;7939;50.814;6.368;2023-08-21T07:51:38;11.68;;;7.20;;
15677;SDS011;7939;50.814;6.368;2023-08-21T07:54:04;9.70;;;5.65;;
15677;SDS011;7939;50.814;6.368;2023-08-21T07:56:31;12.68;;;5.75;;
15677;SDS011;7939;50.814;6.368;2023-08-21T07:58:59;11.80;;;7.22;;
15677;SDS011;7939;50.814;6.368;2023-08-21T08:01:26;9.57;;;6.75;;
15677;SDS011;7939;50.814;6.368;2023-08-21T08:03:53;10.50;;;6.85;;
15677;SDS011;7939;50.814;6.368;2023-08-21T08:06:19;10.43;;;6.47;;
15677;SDS011;7939;50.814;6.368;2023-08-21T08:08:46;11.32;;;7.10;;
15677;SDS011;7939;50.814;6.368;2023-08-21T08:11:13;14.07;;;6.78;;
15677;SDS011;7939;50.814;6.368;2023-08-21T08:13:39;12.02;;;7.75;;
15677;SDS011;7939;50.814;6.368;2023-08-21T08:16:07;13.60;;;6.95;;
15677;SDS011;7939;50.814;6.368;2023-08-21T08:18:34;14.52;;;7.93;;
15677;SDS011;7939;50.814;6.368;2023-08-21T08:21:00;9.82;;;6.43;;
15677;SDS011;7939;50.814;6.368;2023-08-21T08:23:27;10.98;;;6.90;;
15677;SDS011;7939;50.814;6.368;2023-08-21T08:25:53;12.63;;;7.30;;
15677;SDS011;7939;50.814;6.368;2023-08-21T08:28:20;12.43;;;7.60;;
15677;SDS011;7939;50.814;6.368;2023-08-21T08:30:47;8.85;;;6.82;;
15677;SDS011;7939;50.814;6.368;2023-08-21T08:33:15;11.45;;;7.00;;
15677;SDS011;7939;50.814;6.368;2023-08-21T08:35:41;11.27;;;8.30;;
15677;SDS011;7939;50.814;6.368;2023-08-21T08:38:09;10.10;;;6.85;;
15677;SDS011;7939;50.814;6.368;2023-08-21T08:40:37;10.43;;;7.20;;
15677;SDS011;7939;50.814;6.368;2023-08-21T08:43:10;13.33;;;10.13;;
15677;SDS011;7939;50.814;6.368;2023-08-21T08:45:37;13.20;;;9.13;;
15677;SDS011;7939;50.814;6.368;2023-08-21T08:48:04;12.52;;;7.10;;
15677;SDS011;7939;50.814;6.368;2023-08-21T08:50:34;10.77;;;7.60;;
15677;SDS011;7939;50.814;6.368;2023-08-21T08:53:01;13.30;;;7.28;;
15677;SDS011;7939;50.814;6.368;2023-08-21T08:55:28;11.23;;;7.72;;
15677;SDS011;7939;50.814;6.368;2023-08-21T08:57:56;12.65;;;6.75;;
15677;SDS011;7939;50.814;6.368;2023-08-21T09:00:22;9.73;;;6.72;;
15677;SDS011;7939;50.814;6.368;2023-08-21T09:02:49;11.70;;;7.40;;
15677;SDS011;7939;50.814;6.368;2023-08-21T09:05:15;10.02;;;6.82;;
15677;SDS011;7939;50.814;6.368;2023-08-21T09:07:44;11.20;;;6.65;;
15677;SDS011;7939;50.814;6.368;2023-08-21T09:10:13;11.00;;;7.65;;
15677;SDS011;7939;50.814;6.368;2023-08-21T09:12:44;11.15;;;7.15;;
15677;SDS011;7939;50.814;6.368;2023-08-21T09:15:11;8.13;;;5.97;;
15677;SDS011;7939;50.814;6.368;2023-08-21T09:17:38;15.60;;;8.00;;
15677;SDS011;7939;50.814;6.368;2023-08-21T09:20:05;15.40;;;7.68;;
15677;SDS011;7939;50.814;6.368;2023-08-21T09:22:33;11.82;;;7.53;;
15677;SDS011;7939;50.814;6.368;2023-08-21T09:25:01;11.75;;;7.50;;
15677;SDS011;7939;50.814;6.368;2023-08-21T09:27:31;12.27;;;8.35;;
15677;SDS011;7939;50.814;6.368;2023-08-21T09:29:59;15.02;;;8.10;;
15677;SDS011;7939;50.814;6.368;2023-08-21T09:32:25;8.98;;;6.93;;
15677;SDS011;7939;50.814;6.368;2023-08-21T09:34:52;11.43;;;7.93;;
15677;SDS011;7939;50.814;6.368;2023-08-21T09:37:18;14.13;;;7.47;;
15677;SDS011;7939;50.814;6.368;2023-08-21T09:39:45;13.32;;;7.47;;
15677;SDS011;7939;50.814;6.368;2023-08-21T09:42:13;11.18;;;6.63;;
15677;SDS011;7939;50.814;6.368;2023-08-21T09:44:41;9.80;;;6.45;;
15677;SDS011;7939;50.814;6.368;2023-08-21T09:47:08;11.40;;;6.82;;
15677;SDS011;7939;50.814;6.368;2023-08-21T09:49:36;12.68;;;6.78;;
15677;SDS011;7939;50.814;6.368;2023-08-21T09:52:04;10.43;;;7.03;;
15677;SDS011;7939;50.814;6.368;2023-08-21T09:54:33;13.23;;;7.13;;
15677;SDS011;7939;50.814;6.368;2023-08-21T09:57:00;11.52;;;7.20;;
15677;SDS011;7939;50.814;6.368;2023-08-21T09:59:29;9.95;;;5.47;;
15677;SDS011;7939;50.814;6.368;2023-08-21T10:01:56;13.13;;;7.78;;
15677;SDS011;7939;50.814;6.368;2023-08-21T10:04:25;14.88;;;7.45;;
15677;SDS011;7939;50.814;6.368;2023-08-21T10:06:54;10.18;;;6.78;;
15677;SDS011;7939;50.814;6.368;2023-08-21T10:09:22;15.45;;;7.53;;
15677;SDS011;7939;50.814;6.368;2023-08-21T10:11:50;10.93;;;7.55;;
15677;SDS011;7939;50.814;6.368;2023-08-21T10:14:18;12.25;;;7.88;;
15677;SDS011;7939;50.814;6.368;2023-08-21T10:16:47;15.70;;;8.05;;
15677;SDS011;7939;50.814;6.368;2023-08-21T10:19:15;12.32;;;7.60;;
15677;SDS011;7939;50.814;6.368;2023-08-21T10:21:45;11.18;;;7.57;;
15677;SDS011;7939;50.814;6.368;2023-08-21T10:24:13;12.07;;;8.18;;
15677;SDS011;7939;50.814;6.368;2023-08-21T10:26:52;10.45;;;8.15;;
15677;SDS011;7939;50.814;6.368;2023-08-21T10:29:19;12.45;;;8.48;;
15677;SDS011;7939;50.814;6.368;2023-08-21T10:31:45;11.60;;;7.22;;
15677;SDS011;7939;50.814;6.368;2023-08-21T10:34:13;10.55;;;8.73;;
15677;SDS011;7939;50.814;6.368;2023-08-21T10:37:02;12.02;;;8.13;;
15677;SDS011;7939;50.814;6.368;2023-08-21T10:39:30;11.73;;;8.70;;
15677;SDS011;7939;50.814;6.368;2023-08-21T10:42:01;11.80;;;8.52;;
15677;SDS011;7939;50.814;6.368;2023-08-21T10:44:36;15.48;;;9.32;;
15677;SDS011;7939;50.814;6.368;2023-08-21T10:47:14;15.95;;;9.80;;
15677;SDS011;7939;50.814;6.368;2023-08-21T10:49:44;13.88;;;9.27;;
15677;SDS011;7939;50.814;6.368;2023-08-21T10:52:11;12.32;;;9.55;;
15677;SDS011;7939;50.814;6.368;2023-08-21T10:54:45;13.45;;;8.30;;
15677;SDS011;7939;50.814;6.368;2023-08-21T10:57:12;14.05;;;8.68;;
15677;SDS011;7939;50.814;6.368;2023-08-21T10:59:48;9.90;;;7.30;;
15677;SDS011;7939;50.814;6.368;2023-08-21T11:02:15;13.68;;;8.32;;
15677;SDS011;7939;50.814;6.368;2023-08-21T11:04:44;15.77;;;8.23;;
15677;SDS011;7939;50.814;6.368;2023-08-21T11:07:10;10.88;;;7.13;;
15677;SDS011;7939;50.814;6.368;2023-08-21T11:09:37;14.13;;;8.25;;
15677;SDS011;7939;50.814;6.368;2023-08-21T11:12:05;12.32;;;7.95;;
15677;SDS011;7939;50.814;6.368;2023-08-21T11:14:33;17.10;;;9.20;;
15677;SDS011;7939;50.814;6.368;2023-08-21T11:17:00;13.95;;;6.60;;
15677;SDS011;7939;50.814;6.368;2023-08-21T11:19:26;10.18;;;6.40;;
15677;SDS011;7939;50.814;6.368;2023-08-21T11:21:54;11.25;;;7.55;;
15677;SDS011;7939;50.814;6.368;2023-08-21T11:24:21;12.80;;;7.38;;
15677;SDS011;7939;50.814;6.368;2023-08-21T11:26:48;13.20;;;7.25;;
15677;SDS011;7939;50.814;6.368;2023-08-21T11:29:14;11.13;;;6.18;;
15677;SDS011;7939;50.814;6.368;2023-08-21T11:31:41;8.80;;;5.13;;
15677;SDS011;7939;50.814;6.368;2023-08-21T11:34:08;10.45;;;5.55;;
15677;SDS011;7939;50.814;6.368;2023-08-21T11:36:34;7.72;;;5.57;;
15677;SDS011;7939;50.814;6.368;2023-08-21T11:39:02;12.23;;;5.97;;
15677;SDS011;7939;50.814;6.368;2023-08-21T11:41:30;12.48;;;6.78;;
15677;SDS011;7939;50.814;6.368;2023-08-21T11:44:01;13.48;;;6.32;;
15677;SDS011;7939;50.814;6.368;2023-08-21T11:46:28;10.88;;;6.63;;
15677;SDS011;7939;50.814;6.368;2023-08-21T11:48:55;8.95;;;5.45;;
15677;SDS011;7939;50.814;6.368;2023-08-21T11:51:22;16.80;;;6.20;;
15677;SDS011;7939;50.814;6.368;2023-08-21T11:53:48;10.13;;;5.63;;
15677;SDS011;7939;50.814;6.368;2023-08-21T11:56:16;9.68;;;5.28;;
15677;SDS011;7939;50.814;6.368;2023-08-21T11:58:44;11.55;;;4.85;;
15677;SDS011;7939;50.814;6.368;2023-08-21T12:01:15;8.02;;;4.47;;
15677;SDS011;7939;50.814;6.368;2023-08-21T12:03:43;9.40;;;4.65;;
15677;SDS011;7939;50.814;6.368;2023-08-21T12:06:10;5.70;;;3.58;;
15677;SDS011;7939;50.814;6.368;2023-08-21T12:08:37;6.53;;;3.45;;
15677;SDS011;7939;50.814;6.368;2023-08-21T12:11:05;6.60;;;4.15;;
15677;SDS011;7939;50.814;6.368;2023-08-21T12:13:34;6.10;;;3.67;;
15677;SDS011;7939;50.814;6.368;2023-08-21T12:16:00;6.85;;;3.25;;
15677;SDS011;7939;50.814;6.368;2023-08-21T12:18:27;7.85;;;3.38;;
15677;SDS011;7939;50.814;6.368;2023-08-21T12:20:54;7.30;;;3.28;;
15677;SDS011;7939;50.814;6.368;2023-08-21T12:23:20;5.55;;;3.03;;
15677;SDS011;7939;50.814;6.368;2023-08-21T12:25:47;5.97;;;2.53;;
15677;SDS011;7939;50.814;6.368;2023-08-21T12:28:13;6.45;;;3.00;;
15677;SDS011;7939;50.814;6.368;2023-08-21T12:30:41;6.65;;;2.90;;
15677;SDS011;7939;50.814;6.368;2023-08-21T12:33:08;9.55;;;2.70;;
15677;SDS011;7939;50.814;6.368;2023-08-21T12:35:34;4.93;;;2.38;;
15677;SDS011;7939;50.814;6.368;2023-08-21T12:38:01;4.38;;;3.00;;
15677;SDS011;7939;50.814;6.368;2023-08-21T12:40:30;5.72;;;2.35;;
15677;SDS011;7939;50.814;6.368;2023-08-21T12:42:57;5.75;;;2.35;;
15677;SDS011;7939;50.814;6.368;2023-08-21T12:45:23;5.43;;;2.40;;
15677;SDS011;7939;50.814;6.368;2023-08-21T12:47:51;8.20;;;3.35;;
15677;SDS011;7939;50.814;6.368;2023-08-21T12:50:18;6.63;;;3.10;;
15677;SDS011;7939;50.814;6.368;2023-08-21T12:52:45;4.70;;;2.42;;
15677;SDS011;7939;50.814;6.368;2023-08-21T12:55:11;9.60;;;2.67;;
15677;SDS011;7939;50.814;6.368;2023-08-21T12:57:39;6.10;;;2.30;;
15677;SDS011;7939;50.814;6.368;2023-08-21T13:00:06;4.93;;;2.22;;
15677;SDS011;7939;50.814;6.368;2023-08-21T13:02:33;7.10;;;2.72;;
15677;SDS011;7939;50.814;6.368;2023-08-21T13:05:01;5.93;;;2.15;;
15677;SDS011;7939;50.814;6.368;2023-08-21T13:07:28;4.88;;;2.20;;
15677;SDS011;7939;50.814;6.368;2023-08-21T13:09:55;5.82;;;2.20;;
15677;SDS011;7939;50.814;6.368;2023-08-21T13:12:24;4.45;;;2.10;;
15677;SDS011;7939;50.814;6.368;2023-08-21T13:14:51;6.57;;;2.13;;
15677;SDS011;7939;50.814;6.368;2023-08-21T13:17:17;5.45;;;2.17;;
15677;SDS011;7939;50.814;6.368;2023-08-21T13:19:44;6.47;;;2.35;;
15677;SDS011;7939;50.814;6.368;2023-08-21T13:22:12;7.07;;;2.05;;
15677;SDS011;7939;50.814;6.368;2023-08-21T13:24:39;6.03;;;2.15;;
15677;SDS011;7939;50.814;6.368;2023-08-21T13:27:06;4.10;;;2.03;;
15677;SDS011;7939;50.814;6.368;2023-08-21T13:29:32;6.35;;;2.33;;
15677;SDS011;7939;50.814;6.368;2023-08-21T13:31:59;5.07;;;2.08;;
15677;SDS011;7939;50.814;6.368;2023-08-21T13:34:25;6.00;;;2.25;;
15677;SDS011;7939;50.814;6.368;2023-08-21T13:36:52;5.53;;;1.92;;
15677;SDS011;7939;50.814;6.368;2023-08-21T13:39:20;6.43;;;2.00;;
15677;SDS011;7939;50.814;6.368;2023-08-21T13:41:47;2.40;;;1.63;;
15677;SDS011;7939;50.814;6.368;2023-08-21T13:44:15;5.22;;;1.90;;
15677;SDS011;7939;50.814;6.368;2023-08-21T13:46:42;7.28;;;2.25;;
15677;SDS011;7939;50.814;6.368;2023-08-21T13:49:08;4.15;;;1.70;;
15677;SDS011;7939;50.814;6.368;2023-08-21T13:51:35;6.38;;;1.60;;
15677;SDS011;7939;50.814;6.368;2023-08-21T13:54:02;7.18;;;1.95;;
15677;SDS011;7939;50.814;6.368;2023-08-21T13:56:30;3.28;;;2.03;;
15677;SDS011;7939;50.814;6.368;2023-08-21T13:58:56;3.90;;;1.77;;
15677;SDS011;7939;50.814;6.368;2023-08-21T14:01:23;14.77;;;2.58;;
15677;SDS011;7939;50.814;6.368;2023-08-21T14:03:50;5.65;;;2.00;;
15677;SDS011;7939;50.814;6.368;2023-08-21T14:06:17;3.80;;;1.75;;
15677;SDS011;7939;50.814;6.368;2023-08-21T14:08:43;4.95;;;1.98;;
15677;SDS011;7939;50.814;6.368;2023-08-21T14:11:10;4.75;;;1.70;;
15677;SDS011;7939;50.814;6.368;2023-08-21T14:13:38;4.68;;;1.80;;
15677;SDS011;7939;50.814;6.368;2023-08-21T14:16:04;9.80;;;2.35;;
15677;SDS011;7939;50.814;6.368;2023-08-21T14:18:31;3.85;;;1.85;;
15677;SDS011;7939;50.814;6.368;2023-08-21T14:20:57;8.70;;;2.50;;
15677;SDS011;7939;50.814;6.368;2023-08-21T14:23:24;5.65;;;2.25;;
15677;SDS011;7939;50.814;6.368;2023-08-21T14:25:51;4.68;;;1.80;;
15677;SDS011;7939;50.814;6.368;2023-08-21T14:28:17;3.92;;;1.50;;
15677;SDS011;7939;50.814;6.368;2023-08-21T14:30:45;7.57;;;2.10;;
15677;SDS011;7939;50.814;6.368;2023-08-21T14:33:12;4.25;;;1.50;;
15677;SDS011;7939;50.814;6.368;2023-08-21T14:35:39;4.00;;;1.63;;
15677;SDS011;7939;50.814;6.368;2023-08-21T14:38:05;6.53;;;1.90;;
15677;SDS011;7939;50.814;6.368;2023-08-21T14:40:32;12.00;;;2.92;;
15677;SDS011;7939;50.814;6.368;2023-08-21T14:42:59;3.25;;;1.52;;
15677;SDS011;7939;50.814;6.368;2023-08-21T14:45:25;4.32;;;2.00;;
15677;SDS011;7939;50.814;6.368;2023-08-21T14:47:53;5.78;;;2.00;;
15677;SDS011;7939;50.814;6.368;2023-08-21T14:50:20;8.18;;;2.20;;
15677;SDS011;7939;50.814;6.368;2023-08-21T14:52:46;6.43;;;1.90;;
15677;SDS011;7939;50.814;6.368;2023-08-21T14:55:13;4.32;;;1.60;;
15677;SDS011;7939;50.814;6.368;2023-08-21T14:57:40;6.38;;;1.73;;